createdAt,value
2022-08-28T00:00:26.541Z,22.70
2022-08-28T00:05:30.689Z,22.60
2022-08-28T00:10:33.104Z,22.50
2022-08-28T00:15:37.986Z,22.90
2022-08-28T00:20:40.101Z,22.90
2022-08-28T00:25:41.834Z,22.60
2022-08-28T00:30:51.900Z,22.60
2022-08-28T00:35:55.069Z,22.30
2022-08-28T00:41:00.825Z,23.00
2022-08-28T00:46:10.598Z,22.50
2022-08-28T00:51:14.008Z,22.30
2022-08-28T00:56:18.942Z,22.10
2022-08-28T01:01:20.696Z,21.90
2022-08-28T01:06:22.821Z,22.40
2022-08-28T01:11:24.851Z,21.90
2022-08-28T01:16:32.993Z,21.90
2022-08-28T01:21:47.263Z,22.10
2022-08-28T01:26:48.971Z,22.20
2022-08-28T01:31:50.687Z,21.40
2022-08-28T01:36:52.535Z,21.70
2022-08-28T01:41:55.875Z,22.30
2022-08-28T01:46:59.451Z,22.20
2022-08-28T01:52:01.159Z,22.20
2022-08-28T01:57:05.322Z,22.60
2022-08-28T02:02:07.834Z,22.30
2022-08-28T02:07:09.564Z,22.40
2022-08-28T02:12:11.354Z,22.60
2022-08-28T02:17:13.085Z,22.90
2022-08-28T02:22:16.656Z,22.50
2022-08-28T02:27:18.444Z,22.10
2022-08-28T02:32:20.167Z,22.20
2022-08-28T02:37:22.224Z,22.10
2022-08-28T02:42:24.119Z,21.90
2022-08-28T02:47:25.927Z,21.70
2022-08-28T02:52:27.672Z,21.60
2022-08-28T02:57:29.420Z,21.90
2022-08-28T03:02:31.202Z,21.80
2022-08-28T03:07:33.110Z,21.80
2022-08-28T03:12:35.598Z,22.20
2022-08-28T03:17:37.628Z,21.80
2022-08-28T03:22:39.816Z,21.80
2022-08-28T03:27:41.513Z,21.60
2022-08-28T03:32:43.264Z,21.70
2022-08-28T03:37:44.997Z,21.60
2022-08-28T03:42:52.977Z,21.60
2022-08-28T03:47:55.196Z,21.70
2022-08-28T03:52:56.917Z,21.80
2022-08-28T03:57:58.654Z,21.60
2022-08-28T04:03:00.743Z,21.60
2022-08-28T04:08:03.392Z,21.50
2022-08-28T04:13:05.130Z,21.30
2022-08-28T04:18:07.611Z,21.30
2022-08-28T04:23:09.348Z,22.00
2022-08-28T04:28:11.203Z,22.10
2022-08-28T04:33:13.044Z,21.90
2022-08-28T04:38:15.144Z,21.70
2022-08-28T04:43:17.146Z,21.60
2022-08-28T04:48:19.699Z,21.40
2022-08-28T04:53:21.470Z,21.50
2022-08-28T04:58:24.066Z,21.70
2022-08-28T05:03:26.175Z,21.80
2022-08-28T05:08:27.921Z,22.00
2022-08-28T05:13:29.661Z,21.80
2022-08-28T05:18:31.491Z,22.00
2022-08-28T05:23:33.170Z,22.00
2022-08-28T05:28:34.884Z,22.30
2022-08-28T05:33:36.715Z,22.20
2022-08-28T05:38:38.993Z,22.10
2022-08-28T05:43:40.693Z,22.30
2022-08-28T05:48:43.265Z,22.10
2022-08-28T05:53:46.290Z,22.40
2022-08-28T05:58:48.744Z,22.50
2022-08-28T06:04:08.139Z,22.60
2022-08-28T06:09:14.225Z,22.60
2022-08-28T06:14:18.498Z,22.70
2022-08-28T06:19:22.082Z,22.80
2022-08-28T06:24:25.498Z,22.90
2022-08-28T06:29:28.331Z,23.40
2022-08-28T06:34:30.197Z,23.30
2022-08-28T06:39:31.897Z,23.20
2022-08-28T06:44:33.590Z,23.40
2022-08-28T06:49:35.289Z,23.70
2022-08-28T06:54:37.051Z,24.20
2022-08-28T06:59:39.838Z,24.20
2022-08-28T07:04:41.550Z,24.50
2022-08-28T07:09:43.490Z,24.60
2022-08-28T07:14:45.404Z,24.90
2022-08-28T07:19:47.120Z,25.00
2022-08-28T07:24:49.311Z,25.30
2022-08-28T07:29:52.290Z,25.50
2022-08-28T07:34:54.012Z,25.70
2022-08-28T07:39:55.801Z,25.80
2022-08-28T07:44:57.530Z,26.20
2022-08-28T07:49:59.698Z,26.30
2022-08-28T07:55:01.446Z,26.20
2022-08-28T08:00:04.413Z,26.00
2022-08-28T08:05:06.460Z,26.50
2022-08-28T08:10:10.342Z,26.50
2022-08-28T08:15:12.602Z,26.40
2022-08-28T08:20:14.566Z,26.20
2022-08-28T08:25:16.406Z,26.20
2022-08-28T08:30:18.275Z,26.00
2022-08-28T08:35:20.056Z,26.10
2022-08-28T08:40:22.059Z,26.70
2022-08-28T08:45:24.336Z,26.90
2022-08-28T08:50:29.284Z,27.70
2022-08-28T08:55:51.931Z,27.90
2022-08-28T09:01:18.494Z,27.70
2022-08-28T09:06:43.629Z,28.10
2022-08-28T09:11:50.309Z,27.50
2022-08-28T09:16:57.648Z,27.40
2022-08-28T09:21:59.619Z,27.30
2022-08-28T09:27:21.771Z,27.50
2022-08-28T09:32:44.979Z,27.80
2022-08-28T09:37:46.790Z,29.00
2022-08-28T09:43:15.531Z,29.90
2022-08-28T09:48:33.393Z,29.60
2022-08-28T09:53:51.347Z,29.40
2022-08-28T09:58:56.743Z,29.20
2022-08-28T10:04:26.284Z,29.50
2022-08-28T10:09:48.083Z,29.20
2022-08-28T10:15:01.981Z,28.60
2022-08-28T10:20:22.422Z,28.70
2022-08-28T10:25:33.723Z,29.10
2022-08-28T10:30:46.746Z,30.10
2022-08-28T10:36:34.570Z,29.80
2022-08-28T10:41:54.750Z,30.00
2022-08-28T10:46:58.663Z,30.00
2022-08-28T10:52:15.000Z,29.60
2022-08-28T10:57:40.029Z,30.50
2022-08-28T11:02:46.960Z,30.30
2022-08-28T11:07:53.057Z,30.50
2022-08-28T11:12:55.426Z,30.50
2022-08-28T11:18:42.384Z,30.60
2022-08-28T11:23:50.268Z,30.80
2022-08-28T11:28:52.211Z,31.20
2022-08-28T11:33:54.178Z,31.20
2022-08-28T11:38:56.005Z,32.10
2022-08-28T11:44:09.998Z,31.00
2022-08-28T11:49:23.615Z,31.30
2022-08-28T11:54:56.277Z,31.60
2022-08-28T12:00:10.055Z,30.80
2022-08-28T12:05:31.676Z,31.50
2022-08-28T12:10:33.343Z,32.00
2022-08-28T12:15:35.067Z,32.60
2022-08-28T12:20:58.635Z,32.10
2022-08-28T12:26:17.925Z,32.50
2022-08-28T12:31:41.256Z,33.10
2022-08-28T12:36:43.189Z,32.00
2022-08-28T12:41:45.095Z,32.30
2022-08-28T12:46:46.859Z,31.90
2022-08-28T12:51:49.990Z,32.30
2022-08-28T12:56:51.738Z,32.70
2022-08-28T13:01:53.830Z,33.00
2022-08-28T13:07:16.680Z,33.30
2022-08-28T13:12:54.323Z,33.50
2022-08-28T13:17:53.793Z,33.10
2022-08-28T13:22:55.956Z,32.60
2022-08-28T13:28:00.116Z,32.40
2022-08-28T13:33:06.904Z,31.80
2022-08-28T13:38:14.480Z,32.20
2022-08-28T13:43:18.962Z,32.10
2022-08-28T13:48:23.583Z,32.10
2022-08-28T13:53:25.291Z,31.90
2022-08-28T13:58:27.388Z,32.10
2022-08-28T14:03:29.109Z,32.00
2022-08-28T14:08:31.092Z,31.20
2022-08-28T14:13:32.924Z,30.60
2022-08-28T14:18:34.846Z,31.10
2022-08-28T14:23:36.560Z,30.90
2022-08-28T14:28:38.291Z,30.30
2022-08-28T14:33:40.085Z,29.90
2022-08-28T14:38:44.509Z,30.10
2022-08-28T14:43:46.672Z,29.80
2022-08-28T14:48:49.077Z,30.20
2022-08-28T14:53:51.195Z,30.00
2022-08-28T14:58:52.920Z,30.00
2022-08-28T15:03:55.433Z,30.40
2022-08-28T15:08:57.777Z,30.30
2022-08-28T15:13:59.507Z,30.20
2022-08-28T15:19:02.137Z,30.20
2022-08-28T15:24:05.152Z,29.80
2022-08-28T15:29:07.327Z,29.90
2022-08-28T15:34:16.498Z,29.60
2022-08-28T15:39:18.325Z,29.50
2022-08-28T15:44:20.189Z,29.20
2022-08-28T15:49:23.911Z,29.30
2022-08-28T15:54:26.263Z,29.60
2022-08-28T15:59:48.631Z,30.00
2022-08-28T16:04:50.798Z,30.00
2022-08-28T16:09:52.781Z,29.80
2022-08-28T16:14:54.505Z,29.80
2022-08-28T16:19:56.238Z,30.00
2022-08-28T16:24:57.958Z,29.60
2022-08-28T16:29:59.765Z,29.80
2022-08-28T16:35:02.449Z,29.70
2022-08-28T16:40:05.128Z,29.40
2022-08-28T16:45:07.365Z,29.50
2022-08-28T16:50:11.786Z,29.40
2022-08-28T16:55:13.638Z,29.40
2022-08-28T17:00:15.586Z,29.30
2022-08-28T17:05:18.608Z,29.40
2022-08-28T17:10:22.495Z,29.40
2022-08-28T17:15:24.296Z,29.20
2022-08-28T17:20:26.269Z,29.10
2022-08-28T17:25:28.141Z,29.00
2022-08-28T17:30:29.902Z,28.90
2022-08-28T17:35:31.605Z,28.80
2022-08-28T17:40:42.596Z,28.70
2022-08-28T17:45:44.312Z,28.60
2022-08-28T17:50:46.019Z,28.50
2022-08-28T17:55:47.745Z,28.30
2022-08-28T18:00:49.466Z,28.30
2022-08-28T18:05:51.258Z,28.10
2022-08-28T18:10:52.997Z,28.10
2022-08-28T18:15:56.930Z,27.90
2022-08-28T18:20:58.945Z,27.90
2022-08-28T18:26:00.628Z,27.90
2022-08-28T18:31:03.974Z,27.90
2022-08-28T18:36:13.867Z,27.50
2022-08-28T18:41:15.801Z,27.50
2022-08-28T18:46:17.534Z,27.60
2022-08-28T18:51:21.774Z,27.30
2022-08-28T18:56:23.561Z,27.30
2022-08-28T19:01:29.247Z,27.30
2022-08-28T19:06:31.633Z,27.30
2022-08-28T19:11:33.891Z,27.40
2022-08-28T19:16:35.604Z,27.40
2022-08-28T19:21:37.583Z,27.10
2022-08-28T19:26:39.285Z,27.20
2022-08-28T19:31:41.882Z,26.90
2022-08-28T19:36:43.607Z,26.70
2022-08-28T19:41:45.328Z,26.70
2022-08-28T19:46:47.246Z,26.40
2022-08-28T19:51:49.089Z,26.50
2022-08-28T19:56:50.803Z,26.30
2022-08-28T20:01:52.707Z,26.30
2022-08-28T20:06:54.444Z,26.20
2022-08-28T20:11:56.167Z,26.30
2022-08-28T20:16:58.699Z,26.10
2022-08-28T20:22:00.407Z,26.00
2022-08-28T20:27:02.268Z,26.30
2022-08-28T20:32:04.282Z,26.10
2022-08-28T20:37:06.023Z,26.20
2022-08-28T20:42:09.225Z,26.30
2022-08-28T20:47:10.906Z,26.20
2022-08-28T20:52:14.333Z,26.50
2022-08-28T20:57:18.377Z,26.40
2022-08-28T21:02:24.254Z,26.40
2022-08-28T21:07:26.183Z,26.40
2022-08-28T21:12:27.947Z,26.40
2022-08-28T21:17:30.684Z,26.40
2022-08-28T21:22:35.115Z,26.30
2022-08-28T21:27:37.921Z,25.90
2022-08-28T21:32:39.973Z,26.10
2022-08-28T21:37:42.696Z,26.20
2022-08-28T21:42:44.442Z,26.40
2022-08-28T21:47:46.159Z,25.90
2022-08-28T21:52:47.871Z,25.80
2022-08-28T21:57:49.737Z,25.60
2022-08-28T22:02:51.632Z,25.90
2022-08-28T22:07:53.454Z,25.50
2022-08-28T22:12:55.163Z,25.40
2022-08-28T22:17:56.991Z,25.50
2022-08-28T22:22:58.789Z,25.60
2022-08-28T22:28:00.547Z,25.50
2022-08-28T22:33:02.679Z,25.90
2022-08-28T22:38:04.869Z,25.80
2022-08-28T22:43:06.823Z,26.00
2022-08-28T22:48:08.895Z,26.00
2022-08-28T22:53:11.370Z,25.70
2022-08-28T22:58:13.202Z,25.90
2022-08-28T23:03:15.288Z,25.80
2022-08-28T23:08:17.521Z,25.90
2022-08-28T23:13:19.944Z,25.70
2022-08-28T23:18:21.953Z,25.80
2022-08-28T23:23:23.942Z,25.50
2022-08-28T23:28:25.752Z,25.60
2022-08-28T23:33:27.472Z,25.80
2022-08-28T23:38:29.300Z,25.70
2022-08-28T23:43:31.189Z,25.40
2022-08-28T23:48:33.472Z,25.00
2022-08-28T23:53:37.530Z,24.60
2022-08-28T23:58:39.603Z,24.50
